createdAt,value
2018-03-22T00:16:03.928Z,12.32
2018-03-22T00:36:38.892Z,7.78
2018-03-22T00:57:18.156Z,5.20
2018-03-22T01:17:52.508Z,13.48
2018-03-22T01:38:26.551Z,10.60
2018-03-22T01:58:57.828Z,7.05
2018-03-22T02:19:30.951Z,9.10
2018-03-22T02:40:04.381Z,12.18
2018-03-22T03:00:35.348Z,10.32
2018-03-22T03:21:07.551Z,9.25
2018-03-22T03:41:40.989Z,10.98
2018-03-22T04:02:14.097Z,21.45
2018-03-22T04:22:50.291Z,13.65
2018-03-22T04:43:24.642Z,10.82
2018-03-22T05:03:59.611Z,12.10
2018-03-22T05:24:33.035Z,9.68
2018-03-22T05:45:08.307Z,13.52
2018-03-22T06:05:40.506Z,7.15
2018-03-22T06:26:12.699Z,9.02
2018-03-22T06:46:43.981Z,19.20
2018-03-22T07:07:18.024Z,13.80
2018-03-22T07:27:50.226Z,18.73
2018-03-22T07:48:22.426Z,26.73
2018-03-22T08:08:56.473Z,23.83
2018-03-22T08:29:31.151Z,23.07
2018-03-22T08:50:05.172Z,16.80
2018-03-22T09:10:38.294Z,14.30
2018-03-22T09:31:16.332Z,16.20
2018-03-22T09:51:47.617Z,18.17
2018-03-22T10:12:21.952Z,12.80
2018-03-22T10:32:58.494Z,11.57
2018-03-22T10:53:34.341Z,9.70
2018-03-22T11:14:11.765Z,12.07
2018-03-22T11:34:47.960Z,10.80
2018-03-22T11:55:24.464Z,10.13
2018-03-22T12:16:00.701Z,7.77
2018-03-22T12:36:34.692Z,9.60
2018-03-22T12:57:17.031Z,7.87
2018-03-22T13:17:50.441Z,7.00
2018-03-22T13:38:22.361Z,8.63
2018-03-22T13:58:56.851Z,8.00
2018-03-22T14:19:29.826Z,7.27
2018-03-22T14:40:06.638Z,6.87
2018-03-22T15:00:41.289Z,5.53
2018-03-22T15:42:09.957Z,6.53
2018-03-22T16:02:43.078Z,7.90
2018-03-22T16:23:22.659Z,5.60
2018-03-22T16:43:56.695Z,10.27
2018-03-22T17:04:33.806Z,4.13
2018-03-22T17:25:11.372Z,4.90
2018-03-22T17:45:46.603Z,3.77
2018-03-22T18:06:22.393Z,5.93
2018-03-22T18:26:52.751Z,5.23
2018-03-22T18:47:25.874Z,7.10
2018-03-22T19:08:00.452Z,8.37
2018-03-22T19:28:32.419Z,9.53
2018-03-22T19:49:06.874Z,11.20
2018-03-22T20:09:40.815Z,20.97
2018-03-22T20:30:16.373Z,25.07
2018-03-22T20:50:49.217Z,16.50
2018-03-22T21:11:24.480Z,16.27
2018-03-22T21:32:01.005Z,18.50
2018-03-22T21:52:49.153Z,18.70
2018-03-22T22:13:26.276Z,19.80
2018-03-22T22:34:00.615Z,19.73
2018-03-22T22:54:36.810Z,20.20
2018-03-22T23:15:13.320Z,22.97
2018-03-22T23:35:50.560Z,23.60
2018-03-22T23:56:22.631Z,23.80
